Time;durP1;ratioP1;P1;durP2;ratioP2;P2;SDS_P1;SDS_P2;PMS_P1;PMS_P2;Temp;Humidity;BMP_temperature;BMP_pressure;BME280_temperature;BME280_humidity;BME280_pressure;Samples;Min_cycle;Max_cycle;Signal;HPM_P1;HPM_P2
2024/04/03 00:05:32;;;;;;;2.72;1.30;;;;;;;6.78;100.00;92322.91;4980685;28;20468;-80
2024/04/03 00:07:57;;;;;;;2.80;1.30;;;;;;;6.81;100.00;92329.38;4982313;28;20038;-80
2024/04/03 00:10:27;;;;;;;3.78;1.70;;;;;;;6.80;100.00;92318.22;4964750;28;20034;-80
2024/04/03 00:12:53;;;;;;;3.85;1.20;;;;;;;6.75;100.00;92326.00;4982180;28;20074;-80
2024/04/03 00:15:18;;;;;;;2.53;1.35;;;;;;;6.78;100.00;92320.28;4982342;28;20086;-80
2024/04/03 00:18:00;;;;;;;2.58;1.40;;;;;;;6.79;100.00;92328.88;4982007;28;20094;-80
2024/04/03 00:20:26;;;;;;;5.07;1.60;;;;;;;6.79;100.00;92326.28;4981203;28;20151;-80
2024/04/03 00:22:51;;;;;;;5.38;1.50;;;;;;;6.72;100.00;92326.56;4981660;28;20080;-80
2024/04/03 00:25:19;;;;;;;2.08;1.30;;;;;;;6.64;100.00;92321.88;4981161;28;20027;-80
2024/04/03 00:27:45;;;;;;;2.92;1.40;;;;;;;6.58;100.00;92326.34;4980558;28;20062;-80
2024/04/03 00:30:11;;;;;;;3.13;1.77;;;;;;;6.53;100.00;92333.38;4982102;28;20054;-80
2024/04/03 00:32:59;;;;;;;4.65;1.80;;;;;;;6.44;100.00;92326.13;4980353;28;20037;-80
2024/04/03 00:35:24;;;;;;;3.00;1.35;;;;;;;6.39;100.00;92333.91;4981681;28;20066;-80
2024/04/03 00:37:50;;;;;;;5.68;1.30;;;;;;;6.35;100.00;92324.31;4981394;28;20053;-80
2024/04/03 00:40:21;;;;;;;4.55;1.33;;;;;;;6.26;100.00;92318.91;4981233;28;20037;-80
2024/04/03 00:42:46;;;;;;;5.35;1.60;;;;;;;6.27;100.00;92325.63;4980270;28;20042;-80
2024/04/03 00:49:20;;;;;;;2.17;1.50;;;;;;;6.18;100.00;92311.63;4980421;28;20542;-79
2024/04/03 00:51:47;;;;;;;3.28;1.58;;;;;;;6.14;100.00;92306.16;4981687;28;20034;-80
2024/04/03 00:54:30;;;;;;;4.72;1.80;;;;;;;6.17;100.00;92310.84;4981149;28;20418;-80
2024/04/03 00:56:56;;;;;;;3.75;1.50;;;;;;;6.17;100.00;92310.03;4981510;28;20049;-80
2024/04/03 00:59:22;;;;;;;4.07;1.52;;;;;;;6.16;100.00;92313.69;4980894;28;20484;-80
2024/04/03 01:02:35;;;;;;;4.00;1.58;;;;;;;6.14;100.00;92310.59;4981134;28;20042;-80
2024/04/03 01:05:00;;;;;;;4.25;1.42;;;;;;;6.11;100.00;92311.88;4979745;28;20054;-80
2024/04/03 01:07:26;;;;;;;3.80;1.30;;;;;;;6.09;100.00;92308.78;4980783;28;20045;-80
2024/04/03 01:10:17;;;;;;;3.88;1.70;;;;;;;6.09;100.00;92308.78;4979978;28;20035;-80
2024/04/03 01:12:43;;;;;;;2.30;1.38;;;;;;;6.08;100.00;92304.63;4975769;28;20042;-80
2024/04/03 01:15:53;;;;;;;2.53;1.30;;;;;;;6.10;100.00;92306.94;4961097;29;20048;-80
2024/04/03 01:18:19;;;;;;;4.97;1.50;;;;;;;6.11;100.00;92317.09;4961563;28;20074;-80
2024/04/03 01:20:44;;;;;;;3.42;1.65;;;;;;;6.10;100.00;92317.34;4961585;28;20038;-80
2024/04/03 01:23:14;;;;;;;4.50;1.80;;;;;;;6.09;100.00;92313.19;4960426;28;20504;-80
2024/04/03 01:25:40;;;;;;;4.85;1.70;;;;;;;6.09;100.00;92313.97;4960825;28;20043;-80
2024/04/03 01:28:05;;;;;;;4.38;1.63;;;;;;;6.06;100.00;92304.09;4960962;28;20118;-80
2024/04/03 01:31:02;;;;;;;2.40;1.30;;;;;;;6.11;100.00;92316.31;4961026;28;20063;-80
2024/04/03 01:33:28;;;;;;;4.45;1.48;;;;;;;6.12;100.00;92317.84;4960695;28;20038;-80
2024/04/03 01:35:53;;;;;;;4.22;1.45;;;;;;;6.17;100.00;92318.66;4976154;28;20047;-80
2024/04/03 01:42:17;;;;;;;3.05;1.50;;;;;;;6.20;100.00;92309.53;4960880;29;20050;-80
2024/04/03 01:44:43;;;;;;;3.47;1.80;;;;;;;6.22;100.00;92318.63;4961034;28;20043;-80
2024/04/03 01:47:23;;;;;;;5.18;1.60;;;;;;;6.21;100.00;92318.88;4974377;28;20101;-79
2024/04/03 01:50:32;;;;;;;4.03;1.45;;;;;;;6.30;100.00;92319.13;4941895;29;20055;-79
2024/04/03 01:53:05;;;;;;;6.72;1.33;;;;;;;6.33;100.00;92314.19;4940833;29;20102;-79
2024/04/03 01:55:31;;;;;;;4.50;1.30;;;;;;;6.51;100.00;92310.25;4955769;29;20043;-80
2024/04/03 01:57:57;;;;;;;2.88;1.30;;;;;;;6.81;100.00;92309.34;4941259;29;20417;-79
2024/04/03 02:04:16;;;;;;;5.28;1.80;;;;;;;6.99;100.00;92304.59;4941625;29;20034;-80
2024/04/03 02:06:56;;;;;;;6.55;1.50;;;;;;;6.84;100.00;92295.78;4941211;29;20047;-80
2024/04/03 02:09:22;;;;;;;4.82;1.60;;;;;;;6.76;100.00;92298.97;4938806;29;20042;-80
2024/04/03 02:11:48;;;;;;;15.52;3.50;;;;;;;6.77;100.00;92300.50;4941687;29;20032;-80
2024/04/03 02:15:04;;;;;;;6.60;2.25;;;;;;;6.68;100.00;92297.69;4940168;29;20416;-80
2024/04/03 02:17:30;;;;;;;5.78;1.70;;;;;;;6.64;100.00;92301.88;4941044;29;20035;-81
2024/04/03 02:19:55;;;;;;;4.70;1.80;;;;;;;6.57;100.00;92298.00;4940734;29;20051;-80
2024/04/03 02:22:32;;;;;;;6.65;1.90;;;;;;;6.53;100.00;92294.34;4957133;29;20035;-80
2024/04/03 02:24:58;;;;;;;5.40;1.55;;;;;;;6.47;100.00;92285.81;4941907;29;20028;-80
2024/04/03 02:27:23;;;;;;;5.10;1.85;;;;;;;6.42;100.00;92294.41;4941621;29;20134;-80
2024/04/03 02:30:28;;;;;;;4.78;1.60;;;;;;;6.35;100.00;92296.50;4956102;29;20055;-80
2024/04/03 02:32:54;;;;;;;3.90;1.83;;;;;;;6.32;100.00;92291.06;4941870;29;20516;-80
2024/04/03 02:35:19;;;;;;;7.70;2.10;;;;;;;6.28;100.00;92295.22;4940584;29;20043;-81
2024/04/03 02:37:56;;;;;;;3.47;1.58;;;;;;;6.24;100.00;92279.38;4951717;29;20032;-80
2024/04/03 02:40:22;;;;;;;3.42;1.30;;;;;;;6.22;100.00;92286.66;4960669;28;20556;-80
2024/04/03 02:42:47;;;;;;;4.13;1.70;;;;;;;6.20;100.00;92273.91;4960518;28;20070;-80
2024/04/03 02:45:40;;;;;;;4.75;1.63;;;;;;;6.21;100.00;92269.50;4959993;28;20031;-80
2024/04/03 02:48:33;;;;;;;4.70;1.52;;;;;;;6.21;100.00;92279.88;4964508;28;20100;-80
2024/04/03 02:51:04;;;;;;;4.20;1.63;;;;;;;6.22;100.00;92276.25;4979066;28;20035;-80
2024/04/03 02:53:30;;;;;;;3.15;1.60;;;;;;;6.28;100.00;92283.00;4978873;28;20126;-80
2024/04/03 02:56:15;;;;;;;6.32;1.50;;;;;;;6.27;100.00;92278.84;4979241;28;20035;-80
2024/04/03 02:58:40;;;;;;;8.73;1.75;;;;;;;6.23;100.00;92275.22;4978801;28;20053;-80
2024/04/03 03:01:08;;;;;;;7.20;1.77;;;;;;;6.21;100.00;92277.28;4977630;28;20038;-80
2024/04/03 03:03:56;;;;;;;4.13;1.42;;;;;;;6.23;100.00;92275.97;4978891;28;20467;-80
2024/04/03 03:06:22;;;;;;;8.30;1.58;;;;;;;6.22;100.00;92279.63;4977901;28;20415;-80
2024/04/03 03:08:49;;;;;;;5.72;1.73;;;;;;;6.23;100.00;92288.22;4978348;28;20055;-80
2024/04/03 03:11:17;;;;;;;8.88;1.95;;;;;;;6.23;100.00;92283.00;4993533;28;20121;-80
2024/04/03 03:13:43;;;;;;;8.45;1.88;;;;;;;6.26;100.00;92287.69;4977935;28;20035;-80
2024/04/03 03:16:09;;;;;;;8.73;2.03;;;;;;;6.27;100.00;92283.28;4978830;28;20385;-80
2024/04/03 03:21:57;;;;;;;;;;;;;;;6.25;100.00;92297.28;4994535;28;20039;-80
2024/04/03 03:24:23;;;;;;;6.93;1.50;;;;;;;6.22;100.00;92294.47;4977834;28;20387;-80
2024/04/03 03:31:12;;;;;;;5.40;1.65;;;;;;;6.21;100.00;92293.69;4978602;28;20097;-80
2024/04/03 03:34:10;;;;;;;8.43;1.80;;;;;;;6.24;100.00;92297.56;4979053;28;20118;-80
2024/04/03 03:36:36;;;;;;;9.52;1.83;;;;;;;6.24;100.00;92294.97;4978724;28;20030;-80
2024/04/03 03:39:01;;;;;;;7.38;1.98;;;;;;;6.25;100.00;92296.53;4978991;28;20099;-80
2024/04/03 03:45:22;;;;;;;5.57;1.50;;;;;;;6.28;100.00;92290.78;4978667;28;20415;-79
2024/04/03 03:47:56;;;;;;;3.30;1.45;;;;;;;6.30;100.00;92296.50;4974914;28;20094;-80
2024/04/03 03:53:21;;;;;;;4.28;1.70;;;;;;;6.29;100.00;92291.59;4978668;28;20043;-80
2024/04/03 03:55:46;;;;;;;9.43;2.20;;;;;;;6.33;100.00;92297.81;4977193;28;20053;-80
2024/04/03 03:58:17;;;;;;;7.63;1.90;;;;;;;6.34;100.00;92294.94;4977237;28;20059;-80
2024/04/03 04:00:43;;;;;;;7.78;2.08;;;;;;;6.37;100.00;92301.44;4978500;28;20218;-80
2024/04/03 04:03:09;;;;;;;8.35;1.75;;;;;;;6.39;100.00;92297.53;4976779;28;20039;-80
2024/04/03 04:05:36;;;;;;;7.63;2.05;;;;;;;6.45;100.00;92304.28;4977534;28;20023;-80
2024/04/03 04:08:03;;;;;;;5.53;1.90;;;;;;;6.47;100.00;92304.78;4978582;28;20039;-80
2024/04/03 04:10:29;;;;;;;8.90;2.00;;;;;;;6.46;100.00;92295.44;4977924;28;20035;-80
2024/04/03 04:13:47;;;;;;;8.32;1.98;;;;;;;6.52;100.00;92305.81;4976763;28;20085;-80
2024/04/03 04:16:12;;;;;;;10.40;1.80;;;;;;;6.54;100.00;92303.72;4978134;28;20035;-80
2024/04/03 04:18:38;;;;;;;9.10;1.88;;;;;;;6.53;100.00;92287.34;4977772;28;20054;-80
2024/04/03 04:21:32;;;;;;;10.02;1.67;;;;;;;6.53;100.00;92281.34;4976817;28;20069;-80
2024/04/03 04:23:58;;;;;;;7.38;1.95;;;;;;;6.52;100.00;92274.63;4978679;28;20031;-80
2024/04/03 04:26:24;;;;;;;10.73;2.20;;;;;;;6.50;100.00;92274.88;4977762;28;20103;-80
2024/04/03 04:30:04;;;;;;;7.28;2.00;;;;;;;6.51;100.00;92273.03;4978986;28;20050;-80
2024/04/03 04:32:30;;;;;;;7.97;2.03;;;;;;;6.48;100.00;92263.94;4978642;28;20043;-80
2024/04/03 04:34:56;;;;;;;9.35;2.20;;;;;;;6.51;100.00;92262.63;4982031;28;20041;-80
2024/04/03 04:38:03;;;;;;;8.35;1.92;;;;;;;6.50;100.00;92258.50;4982041;28;20046;-80
2024/04/03 04:40:29;;;;;;;7.85;2.08;;;;;;;6.49;100.00;92259.56;4980197;28;20035;-81
2024/04/03 04:42:54;;;;;;;7.60;2.03;;;;;;;6.50;100.00;92261.88;4981367;28;20037;-80
2024/04/03 04:45:22;;;;;;;9.27;1.73;;;;;;;6.47;100.00;92255.38;4981090;28;20455;-80
2024/04/03 04:47:48;;;;;;;9.38;2.28;;;;;;;6.47;100.00;92254.59;4981424;28;20047;-81
2024/04/03 04:50:13;;;;;;;12.32;1.73;;;;;;;6.41;100.00;92256.44;4977210;28;20570;-80
2024/04/03 04:52:42;;;;;;;9.65;2.28;;;;;;;6.44;100.00;92265.56;4979973;28;20046;-83
2024/04/03 04:55:08;;;;;;;14.45;2.20;;;;;;;6.79;100.00;92275.00;4964530;28;20038;-81
2024/04/03 04:57:33;;;;;;;10.48;2.40;;;;;;;6.55;100.00;92269.66;4963536;28;20050;-82
2024/04/03 04:59:59;;;;;;;7.15;2.20;;;;;;;6.44;100.00;92268.16;4972137;28;20030;-80
2024/04/03 05:02:25;;;;;;;6.72;1.80;;;;;;;6.18;100.00;92270.03;4977624;28;20165;-81
2024/04/03 05:04:52;;;;;;;6.57;1.85;;;;;;;6.17;100.00;92276.25;4979166;28;20027;-79
2024/04/03 05:07:17;;;;;;;7.25;1.83;;;;;;;6.11;100.00;92274.72;4957352;28;20481;-80
2024/04/03 05:09:45;;;;;;;5.70;1.92;;;;;;;5.97;100.00;92280.47;4957479;28;20097;-79
2024/04/03 05:12:10;;;;;;;5.25;1.38;;;;;;;5.87;100.00;92288.22;4957546;28;20050;-79
2024/04/03 05:14:36;;;;;;;8.07;1.80;;;;;;;5.85;100.00;92282.50;4957039;28;20043;-78
2024/04/03 05:17:02;;;;;;;6.45;1.90;;;;;;;5.82;100.00;92290.84;4957337;29;20046;-78
2024/04/03 05:19:28;;;;;;;9.48;2.10;;;;;;;5.74;100.00;92286.97;4958950;29;20042;-79
2024/04/03 05:21:53;;;;;;;7.15;1.48;;;;;;;5.85;100.00;92303.31;4957488;29;20043;-79
2024/04/03 05:24:19;;;;;;;3.15;1.38;;;;;;;5.83;100.00;92297.59;4960686;28;20035;-78
2024/04/03 05:26:45;;;;;;;5.80;1.35;;;;;;;5.99;100.00;92291.38;4960625;29;20078;-78
2024/04/03 05:29:11;;;;;;;5.03;1.52;;;;;;;5.86;100.00;92283.31;4960670;28;20043;-79
2024/04/03 05:31:38;;;;;;;6.90;1.60;;;;;;;5.80;100.00;92279.94;4960577;28;20039;-78
2024/04/03 05:34:04;;;;;;;6.28;1.40;;;;;;;5.79;100.00;92283.59;4958444;28;20078;-79
2024/04/03 05:36:30;;;;;;;4.50;1.40;;;;;;;5.80;100.00;92290.31;4957297;29;20054;-79
2024/04/03 05:38:55;;;;;;;3.72;1.35;;;;;;;5.80;100.00;92293.69;4958768;28;20047;-79
2024/04/03 05:41:26;;;;;;;2.67;1.40;;;;;;;5.81;100.00;92291.91;4957133;29;20027;-79
2024/04/03 05:43:51;;;;;;;4.95;1.40;;;;;;;5.77;100.00;92290.84;4957934;28;20069;-80
2024/04/03 05:46:17;;;;;;;2.17;1.20;;;;;;;5.79;100.00;92304.38;4957977;28;20047;-79
2024/04/03 05:48:43;;;;;;;6.40;1.50;;;;;;;5.79;100.00;92304.38;4957827;28;20602;-79
2024/04/03 05:51:08;;;;;;;6.28;1.95;;;;;;;5.81;100.00;92297.09;4955424;28;20390;-78
2024/04/03 05:53:35;;;;;;;4.35;1.70;;;;;;;5.83;100.00;92295.00;4953913;29;20043;-79
2024/04/03 05:56:02;;;;;;;6.40;1.80;;;;;;;5.84;100.00;92302.53;4955088;28;20039;-77
2024/04/03 05:58:28;;;;;;;4.22;1.75;;;;;;;5.88;100.00;92296.81;4956177;28;20090;-78
2024/04/03 06:00:58;;;;;;;7.68;1.95;;;;;;;5.89;100.00;92295.78;4957395;28;20053;-78
2024/04/03 06:03:24;;;;;;;4.05;1.55;;;;;;;5.91;100.00;92298.91;4957913;28;20389;-78
2024/04/03 06:05:57;;;;;;;2.78;1.40;;;;;;;6.02;100.00;92300.47;4956941;28;20058;-78
2024/04/03 06:08:24;;;;;;;5.38;1.45;;;;;;;6.25;100.00;92315.50;4955950;29;20046;-78
2024/04/03 06:10:50;;;;;;;8.38;2.00;;;;;;;6.00;100.00;92305.91;4955513;28;20527;-77
2024/04/03 06:13:17;;;;;;;4.10;1.90;;;;;;;6.09;100.00;92311.38;4955524;28;20023;-77
2024/04/03 06:15:44;;;;;;;3.70;1.80;;;;;;;6.05;100.00;92308.50;4954126;29;20047;-77
2024/04/03 06:18:11;;;;;;;8.82;2.75;;;;;;;5.97;100.00;92316.84;4956139;28;20035;-78
2024/04/03 06:20:37;;;;;;;9.63;2.22;;;;;;;5.94;100.00;92317.34;4956071;28;20321;-78
2024/04/03 06:23:02;;;;;;;7.45;2.30;;;;;;;5.99;100.00;92325.16;4957237;28;20038;-79
2024/04/03 06:25:28;;;;;;;4.93;2.03;;;;;;;6.01;100.00;92322.28;4955566;28;20050;-78
2024/04/03 06:27:54;;;;;;;6.68;2.42;;;;;;;5.96;100.00;92315.28;4956000;28;20047;-78
2024/04/03 06:30:21;;;;;;;6.53;2.08;;;;;;;5.90;100.00;92321.50;4956002;28;20113;-77
2024/04/03 06:32:47;;;;;;;7.18;2.45;;;;;;;5.85;100.00;92324.09;4956225;29;20522;-77
2024/04/03 06:35:13;;;;;;;7.13;2.00;;;;;;;5.79;100.00;92317.34;4955508;28;20043;-77
2024/04/03 06:37:40;;;;;;;6.72;2.08;;;;;;;5.85;100.00;92324.09;4960699;28;20485;-82
2024/04/03 06:40:09;;;;;;;8.98;2.15;;;;;;;5.88;100.00;92313.19;4964878;28;20055;-82
2024/04/03 06:42:36;;;;;;;7.32;1.98;;;;;;;5.86;100.00;92325.66;4968898;28;20034;-82
2024/04/03 06:45:03;;;;;;;6.00;1.88;;;;;;;5.87;100.00;92319.41;4975249;28;20054;-80
2024/04/03 06:47:28;;;;;;;7.15;2.00;;;;;;;5.85;100.00;92321.47;4989333;28;20343;-82
2024/04/03 06:49:55;;;;;;;4.53;2.05;;;;;;;5.81;100.00;92313.44;4982675;28;20410;-83
2024/04/03 06:52:22;;;;;;;8.27;2.42;;;;;;;5.78;100.00;92313.94;4989017;28;20065;-82
2024/04/03 06:54:49;;;;;;;5.45;2.08;;;;;;;5.80;100.00;92317.06;4986115;28;20081;-82
2024/04/03 06:57:15;;;;;;;6.05;2.08;;;;;;;5.77;100.00;92296.81;4981611;28;20042;-81
2024/04/03 06:59:41;;;;;;;5.53;2.33;;;;;;;5.78;100.00;92318.38;4987804;28;20815;-80
2024/04/03 07:02:06;;;;;;;828.75;20.83;;;;;;;5.78;100.00;92313.19;4987398;28;20045;-81
2024/04/03 07:04:32;;;;;;;467.50;10.40;;;;;;;5.74;100.00;92312.94;4985323;28;20046;-81
2024/04/03 07:07:01;;;;;;;363.73;9.80;;;;;;;5.81;100.00;92317.88;4979096;28;20499;-80
2024/04/03 07:09:27;;;;;;;150.27;3.90;;;;;;;5.79;100.00;92318.13;4983308;28;20065;-80
2024/04/03 07:11:52;;;;;;;606.78;13.30;;;;;;;5.76;100.00;92323.03;4977508;28;20066;-82
2024/04/03 07:14:18;;;;;;;338.85;7.60;;;;;;;5.74;100.00;92327.72;4987017;28;20050;-83
2024/04/03 07:16:47;;;;;;;142.73;4.07;;;;;;;5.68;100.00;92324.34;4985637;28;20046;-81
2024/04/03 07:19:12;;;;;;;273.33;6.70;;;;;;;5.64;100.00;92326.69;4988634;28;20039;-82
2024/04/03 07:21:40;;;;;;;75.00;3.40;;;;;;;5.67;100.00;92327.97;4951476;28;20045;-81
2024/04/03 07:24:06;;;;;;;118.50;4.55;;;;;;;5.67;100.00;92335.78;4972849;28;20077;-81
2024/04/03 07:26:32;;;;;;;32.95;4.60;;;;;;;5.64;100.00;92334.47;4989613;28;20589;-81
2024/04/03 07:28:58;;;;;;;8.30;4.07;;;;;;;5.59;100.00;92339.66;4971799;28;20073;-82
2024/04/03 07:31:23;;;;;;;6.90;2.08;;;;;;;5.56;100.00;92337.59;4991882;28;20042;-83
2024/04/03 07:33:50;;;;;;;6.75;1.98;;;;;;;5.57;100.00;92348.75;4990553;28;20045;-82
2024/04/03 07:36:18;;;;;;;5.28;2.15;;;;;;;5.54;100.00;92344.88;4985369;28;20035;-83
2024/04/03 07:38:43;;;;;;;6.63;2.05;;;;;;;5.62;100.00;92340.97;4984865;28;20026;-82
2024/04/03 07:41:09;;;;;;;6.05;2.00;;;;;;;5.67;100.00;92348.75;4976703;28;20287;-79
2024/04/03 07:43:34;;;;;;;5.25;2.00;;;;;;;5.67;100.00;92345.38;4988574;28;20034;-80
2024/04/03 07:46:00;;;;;;;7.00;2.20;;;;;;;5.64;100.00;92339.66;4976791;28;20057;-81
2024/04/03 07:48:26;;;;;;;5.80;1.90;;;;;;;5.68;100.00;92346.97;4991911;28;20485;-80
2024/04/03 07:51:01;;;;;;;8.23;2.40;;;;;;;5.76;100.00;92351.63;4983670;28;20454;-83
2024/04/03 07:53:27;;;;;;;11.50;2.90;;;;;;;5.69;100.00;92349.28;4978139;28;20047;-83
2024/04/03 07:55:53;;;;;;;4.95;1.45;;;;;;;5.64;100.00;92349.28;4979146;28;20029;-81
2024/04/03 07:58:19;;;;;;;4.47;1.38;;;;;;;5.84;100.00;92358.91;4989916;28;20030;-79
2024/04/03 08:00:44;;;;;;;7.40;2.15;;;;;;;5.88;100.00;92359.94;4971693;28;20050;-80
2024/04/03 08:03:11;;;;;;;7.05;2.33;;;;;;;5.92;100.00;92361.00;4976019;28;20038;-83
2024/04/03 08:05:37;;;;;;;75.18;3.25;;;;;;;5.94;100.00;92364.13;4982142;28;20085;-80
2024/04/03 08:08:03;;;;;;;99.53;3.95;;;;;;;5.90;100.00;92376.06;4980572;28;20444;-81
2024/04/03 08:10:29;;;;;;;40.53;2.35;;;;;;;5.94;100.00;92374.50;4976053;28;20031;-80
2024/04/03 08:12:55;;;;;;;3.67;1.40;;;;;;;5.78;100.00;92371.09;4996063;28;20522;-81
2024/04/03 08:15:21;;;;;;;3.83;1.38;;;;;;;5.67;100.00;92358.38;4991107;28;20042;-80
2024/04/03 08:17:47;;;;;;;2.28;1.25;;;;;;;5.69;100.00;92371.88;4997028;28;20037;-81
2024/04/03 08:20:15;;;;;;;2.35;1.30;;;;;;;5.69;100.00;92366.69;4959880;28;20559;-80
2024/04/03 08:22:40;;;;;;;1.98;1.02;;;;;;;5.58;100.00;92360.69;4983177;28;20070;-80
2024/04/03 08:25:07;;;;;;;6.30;1.10;;;;;;;5.62;100.00;92370.31;4983602;28;20048;-80
2024/04/03 08:27:33;;;;;;;2.05;1.10;;;;;;;5.61;100.00;92376.56;4994988;28;20057;-81
2024/04/03 08:30:00;;;;;;;1.83;1.05;;;;;;;5.66;100.00;92382.78;4995868;28;20038;-82
2024/04/03 08:32:26;;;;;;;1.52;1.08;;;;;;;5.76;100.00;92378.38;4988902;28;20046;-81
2024/04/03 08:34:51;;;;;;;1.80;1.00;;;;;;;5.84;100.00;92375.28;4980101;28;20088;-79
2024/04/03 08:37:21;;;;;;;2.72;1.20;;;;;;;5.76;100.00;92380.19;4995017;28;20098;-80
2024/04/03 08:39:51;;;;;;;2.60;1.10;;;;;;;5.75;100.00;92381.25;4995933;28;20096;-80
2024/04/03 08:42:18;;;;;;;1.63;0.88;;;;;;;5.73;100.00;92378.13;4978747;28;20423;-81
2024/04/03 08:44:44;;;;;;;3.42;1.23;;;;;;;5.73;100.00;92383.31;4995002;28;20524;-78
2024/04/03 08:47:10;;;;;;;2.28;1.30;;;;;;;5.74;100.00;92383.06;4995747;28;20050;-80
2024/04/03 08:49:39;;;;;;;4.10;1.60;;;;;;;5.79;100.00;92384.88;4995395;28;20065;-79
2024/04/03 08:52:12;;;;;;;2.20;1.27;;;;;;;5.78;100.00;92385.91;4977984;28;20125;-79
2024/04/03 08:54:42;;;;;;;2.92;1.00;;;;;;;5.64;100.00;92385.63;4994837;28;20038;-79
2024/04/03 08:57:08;;;;;;;2.30;1.10;;;;;;;5.66;100.00;92388.75;4994733;28;20088;-80
2024/04/03 08:59:38;;;;;;;1.70;1.00;;;;;;;5.66;100.00;92390.59;4995182;28;20051;-77
2024/04/03 09:02:05;;;;;;;1.98;1.10;;;;;;;5.61;100.00;92386.94;4994499;28;20042;-78
2024/04/03 09:04:32;;;;;;;2.50;1.02;;;;;;;5.54;100.00;92386.41;4994051;28;20505;-80
2024/04/03 09:06:59;;;;;;;3.05;1.40;;;;;;;5.63;100.00;92382.28;4959597;28;20042;-80
2024/04/03 09:09:29;;;;;;;1.67;1.20;;;;;;;5.66;100.00;92391.34;4958307;28;20125;-80
2024/04/03 09:12:06;;;;;;;2.13;1.20;;;;;;;5.77;100.00;92385.13;4974233;28;20093;-80
2024/04/03 09:14:31;;;;;;;4.60;1.40;;;;;;;5.72;100.00;92387.75;4974349;28;20042;-81
2024/04/03 09:16:59;;;;;;;3.05;1.27;;;;;;;5.68;100.00;92396.31;4974852;28;20030;-79
2024/04/03 09:19:24;;;;;;;3.75;1.30;;;;;;;5.54;100.00;92396.78;4974708;28;20051;-81
2024/04/03 09:21:50;;;;;;;2.15;1.30;;;;;;;5.58;100.00;92403.03;4974503;28;20086;-81
2024/04/03 09:24:16;;;;;;;3.00;1.40;;;;;;;5.68;100.00;92394.47;4974698;28;20038;-80
2024/04/03 09:26:44;;;;;;;4.00;1.40;;;;;;;5.59;100.00;92393.44;4974660;28;20111;-81
2024/04/03 09:29:12;;;;;;;4.55;1.83;;;;;;;5.47;100.00;92396.28;4974619;28;20038;-79
2024/04/03 09:31:37;;;;;;;4.00;1.60;;;;;;;5.45;100.00;92400.94;4975058;28;20122;-80
2024/04/03 09:34:07;;;;;;;1.60;1.15;;;;;;;5.60;100.00;92398.34;4974577;28;20074;-80
2024/04/03 09:36:32;;;;;;;4.32;1.30;;;;;;;5.78;100.00;92398.91;4991830;28;20398;-80
2024/04/03 09:38:58;;;;;;;5.00;2.38;;;;;;;5.71;100.00;92393.94;4992646;28;20034;-80
2024/04/03 09:41:29;;;;;;;1.73;1.08;;;;;;;5.77;100.00;92392.16;4993661;28;20056;-80
2024/04/03 09:44:02;;;;;;;2.58;1.60;;;;;;;5.73;100.00;92394.47;4993198;28;20491;-79
2024/04/03 09:46:51;;;;;;;2.75;1.60;;;;;;;5.72;100.00;92397.31;4993516;28;20074;-75
2024/04/03 09:49:23;;;;;;;3.53;1.58;;;;;;;5.66;100.00;92395.78;4993680;28;20113;-79
2024/04/03 09:51:50;;;;;;;1.02;0.93;;;;;;;5.76;100.00;92393.19;4994007;28;20515;-80
2024/04/03 09:54:18;;;;;;;3.58;1.58;;;;;;;5.75;100.00;92399.44;4994738;28;20272;-78
2024/04/03 09:56:44;;;;;;;4.45;1.40;;;;;;;5.59;100.00;92396.78;4994437;28;20042;-79
2024/04/03 09:59:12;;;;;;;3.35;1.45;;;;;;;5.58;100.00;92397.84;4994241;28;20045;-78
2024/04/03 10:01:39;;;;;;;3.92;1.77;;;;;;;5.65;100.00;92405.38;4992565;28;20030;-79
2024/04/03 10:04:07;;;;;;;3.25;1.50;;;;;;;5.67;100.00;92403.28;4993506;28;20046;-79
2024/04/03 10:06:36;;;;;;;2.35;1.50;;;;;;;5.69;100.00;92397.84;4993499;28;20037;-79
2024/04/03 10:09:24;;;;;;;3.40;1.17;;;;;;;5.71;100.00;92406.16;4994037;28;20568;-79
2024/04/03 10:11:54;;;;;;;1.10;1.00;;;;;;;5.66;100.00;92406.94;4994381;28;20038;-80
2024/04/03 10:14:26;;;;;;;2.50;1.27;;;;;;;5.70;100.00;92404.63;4993870;28;20125;-79
2024/04/03 10:16:56;;;;;;;2.60;1.20;;;;;;;5.74;100.00;92400.44;4993428;28;20026;-78
2024/04/03 10:19:30;;;;;;;4.00;1.20;;;;;;;5.79;100.00;92403.84;4993512;28;20474;-79
2024/04/03 10:21:56;;;;;;;5.03;1.40;;;;;;;5.86;100.00;92403.59;4993657;28;20383;-78
2024/04/03 10:24:23;;;;;;;12.27;5.95;;;;;;;5.94;100.00;92402.28;4975773;28;20050;-78
2024/04/03 10:26:49;;;;;;;9.18;4.50;;;;;;;5.98;100.00;92400.75;4979667;28;20101;-78
2024/04/03 10:29:16;;;;;;;2.67;1.45;;;;;;;6.01;100.00;92401.03;4979511;28;20110;-78
2024/04/03 10:31:46;;;;;;;5.53;2.70;;;;;;;6.09;100.00;92396.34;4991943;28;20066;-78
2024/04/03 10:34:12;;;;;;;6.63;4.15;;;;;;;6.15;100.00;92397.94;4988268;28;20042;-78
2024/04/03 10:36:38;;;;;;;5.25;2.40;;;;;;;6.21;100.00;92399.47;4992691;28;20550;-78
2024/04/03 10:39:05;;;;;;;3.20;1.90;;;;;;;6.27;100.00;92388.03;4992422;28;20038;-78
2024/04/03 10:41:30;;;;;;;4.43;2.00;;;;;;;6.36;100.00;92399.44;4992502;28;20034;-78
2024/04/03 10:43:56;;;;;;;5.35;1.95;;;;;;;6.38;100.00;92397.38;4995363;28;20402;-79
2024/04/03 10:46:23;;;;;;;2.80;1.45;;;;;;;6.46;100.00;92393.44;4994802;28;20046;-80
2024/04/03 10:48:48;;;;;;;2.63;1.63;;;;;;;6.48;100.00;92399.16;4992249;28;20125;-79
2024/04/03 10:51:14;;;;;;;4.18;1.40;;;;;;;6.45;100.00;92404.91;4993206;28;20062;-79
2024/04/03 10:53:40;;;;;;;8.02;1.40;;;;;;;6.41;100.00;92399.44;4992503;28;20043;-77
2024/04/03 10:56:06;;;;;;;2.90;1.30;;;;;;;6.47;100.00;92403.59;4992818;28;20412;-79
2024/04/03 10:58:37;;;;;;;3.30;1.40;;;;;;;6.41;100.00;92402.03;4992895;28;20023;-77
2024/04/03 11:01:03;;;;;;;4.00;1.75;;;;;;;6.20;100.00;92397.91;4991883;28;20042;-78
2024/04/03 11:03:31;;;;;;;4.93;2.13;;;;;;;6.16;100.00;92399.47;4973755;28;20162;-78
2024/04/03 11:05:57;;;;;;;3.65;1.45;;;;;;;6.15;100.00;92400.53;4990538;28;20399;-73
2024/04/03 11:08:24;;;;;;;212.00;6.60;;;;;;;6.14;100.00;92401.53;4990681;28;20057;-76
2024/04/03 11:10:49;;;;;;;5.40;1.95;;;;;;;6.14;100.00;92398.94;4990803;28;20041;-78
2024/04/03 11:13:19;;;;;;;6.68;2.45;;;;;;;6.08;100.00;92405.97;4990201;28;20399;-77
2024/04/03 11:15:52;;;;;;;2.15;1.15;;;;;;;6.13;100.00;92389.59;4990666;28;20133;-78
2024/04/03 11:18:17;;;;;;;;;;;;;;;6.05;100.00;92396.84;4956853;28;20519;-77
2024/04/03 11:20:44;;;;;;;2.80;1.38;;;;;;;6.05;100.00;92393.50;4991565;28;19917;-77
2024/04/03 11:23:10;;;;;;;2.60;1.50;;;;;;;6.20;100.00;92387.50;4973694;28;20034;-78
2024/04/03 11:25:36;;;;;;;4.15;1.48;;;;;;;6.21;100.00;92384.66;4974119;28;20495;-78
2024/04/03 11:28:03;;;;;;;3.35;1.50;;;;;;;6.31;100.00;92383.09;4974914;28;20022;-78
2024/04/03 11:30:30;;;;;;;4.45;1.70;;;;;;;6.39;100.00;92379.94;4992088;28;20044;-76
2024/04/03 11:32:59;;;;;;;3.25;1.63;;;;;;;6.43;100.00;92386.97;4975337;28;20121;-79
2024/04/03 11:35:25;;;;;;;2.47;1.40;;;;;;;6.49;100.00;92381.78;4990158;28;20122;-79
2024/04/03 11:37:51;;;;;;;4.45;1.42;;;;;;;6.48;100.00;92388.78;4963762;28;20332;-78
2024/04/03 11:40:17;;;;;;;7.30;1.80;;;;;;;6.46;100.00;92383.84;4974263;28;20484;-76
2024/04/03 11:42:43;;;;;;;3.75;1.48;;;;;;;6.43;100.00;92381.75;4990168;28;20105;-78
2024/04/03 11:45:09;;;;;;;6.00;1.80;;;;;;;6.34;100.00;92378.13;4972173;28;20043;-78
2024/04/03 11:47:34;;;;;;;3.83;1.90;;;;;;;6.31;100.00;92380.50;4976922;28;20035;-77
2024/04/03 11:50:01;;;;;;;8.27;2.10;;;;;;;6.27;100.00;92382.06;4976560;28;20064;-79
2024/04/03 11:52:27;;;;;;;3.78;1.95;;;;;;;6.35;100.00;92384.91;4977399;28;20041;-78
2024/04/03 11:54:55;;;;;;;6.50;1.58;;;;;;;6.40;100.00;92387.50;4976823;28;20039;-78
2024/04/03 11:57:21;;;;;;;5.22;1.70;;;;;;;6.49;100.00;92394.78;4975728;28;20292;-79
2024/04/03 11:59:51;;;;;;;4.55;1.80;;;;;;;6.46;100.00;92388.25;4977830;28;20515;-79
2024/04/03 12:02:17;;;;;;;2.65;1.45;;;;;;;6.44;100.00;92391.13;4976558;28;20050;-78
2024/04/03 12:04:43;;;;;;;2.85;1.50;;;;;;;6.45;100.00;92389.31;4977266;28;20500;-78
2024/04/03 12:07:12;;;;;;;3.65;1.75;;;;;;;6.45;100.00;92384.09;4977262;28;20064;-78
2024/04/03 12:09:38;;;;;;;6.55;2.60;;;;;;;6.57;100.00;92389.03;4976049;28;20049;-77
2024/04/03 12:12:05;;;;;;;4.05;1.80;;;;;;;6.60;100.00;92385.91;4976931;28;20053;-76